Time;durP1;ratioP1;P1;durP2;ratioP2;P2;SDS_P1;SDS_P2;PMS_P1;PMS_P2;Temp;Humidity;BMP_temperature;BMP_pressure;BME280_temperature;BME280_humidity;BME280_pressure;Samples;Min_cycle;Max_cycle;Signal;HPM_P1;HPM_P2
2022/07/07 00:00:58;;;;;;;12.68;6.50;;;16.70;99.90;;;;;;5095396;28;20043;-78
2022/07/07 00:03:24;;;;;;;12.57;7.35;;;16.70;99.90;;;;;;5095216;28;20043;-78
2022/07/07 00:05:50;;;;;;;11.68;7.50;;;16.70;99.90;;;;;;5095592;28;20031;-78
2022/07/07 00:08:16;;;;;;;13.90;6.47;;;16.70;99.90;;;;;;5113563;28;20522;-78
2022/07/07 00:10:41;;;;;;;13.45;7.05;;;16.70;99.90;;;;;;5095307;28;20122;-78
2022/07/07 00:13:07;;;;;;;10.40;7.18;;;16.60;99.90;;;;;;5095483;28;20118;-78
2022/07/07 00:15:33;;;;;;;15.98;7.10;;;16.70;99.90;;;;;;5095693;28;20043;-78
2022/07/07 00:17:59;;;;;;;14.23;5.47;;;16.60;99.90;;;;;;5094863;28;20050;-78
2022/07/07 00:20:25;;;;;;;11.02;6.18;;;16.60;99.90;;;;;;5094355;28;20039;-78
2022/07/07 00:22:51;;;;;;;13.05;6.65;;;16.60;99.90;;;;;;5094538;28;20119;-78
2022/07/07 00:25:17;;;;;;;12.15;6.25;;;16.60;99.90;;;;;;5094472;28;20088;-77
2022/07/07 00:27:42;;;;;;;14.18;7.85;;;16.60;99.90;;;;;;5094540;28;20147;-78
2022/07/07 00:30:08;;;;;;;11.45;7.70;;;16.60;99.90;;;;;;5077350;28;20047;-78
2022/07/07 00:32:34;;;;;;;16.65;8.23;;;16.60;99.90;;;;;;5094500;28;20047;-77
2022/07/07 00:35:00;;;;;;;12.80;7.53;;;16.60;99.90;;;;;;5078091;28;20040;-78
2022/07/07 00:37:25;;;;;;;15.57;8.65;;;16.60;99.90;;;;;;5095211;28;20050;-78
2022/07/07 00:39:51;;;;;;;11.50;6.80;;;16.60;99.90;;;;;;5094476;28;20132;-77
2022/07/07 00:42:17;;;;;;;11.95;7.15;;;16.60;99.90;;;;;;5096225;28;20047;-78
2022/07/07 00:44:43;;;;;;;13.13;7.57;;;16.60;99.90;;;;;;5095629;28;20047;-77
2022/07/07 00:47:09;;;;;;;17.13;7.65;;;16.60;99.90;;;;;;5096177;28;20106;-78
2022/07/07 00:49:38;;;;;;;10.00;6.05;;;16.60;99.90;;;;;;5096522;28;20043;-78
2022/07/07 00:52:06;;;;;;;11.85;6.65;;;16.60;99.90;;;;;;5112747;28;20055;-77
2022/07/07 00:54:31;;;;;;;12.90;6.80;;;16.60;99.90;;;;;;5116071;28;20050;-78
2022/07/07 00:56:57;;;;;;;9.35;6.00;;;16.60;99.90;;;;;;5110744;28;20039;-79
2022/07/07 00:59:22;;;;;;;10.50;6.68;;;16.60;99.90;;;;;;5094122;28;20067;-78
2022/07/07 01:01:48;;;;;;;11.43;7.40;;;16.60;99.90;;;;;;5094110;28;20090;-78
2022/07/07 01:04:14;;;;;;;12.25;7.18;;;16.60;99.90;;;;;;5093967;28;20498;-78
2022/07/07 01:06:40;;;;;;;14.73;7.15;;;16.60;99.90;;;;;;5093909;28;20138;-78
2022/07/07 01:09:07;;;;;;;10.25;6.47;;;16.60;99.90;;;;;;5094307;28;20092;-78
2022/07/07 01:11:44;;;;;;;11.15;7.22;;;16.60;99.90;;;;;;5093841;28;20040;-78
2022/07/07 01:14:10;;;;;;;13.43;6.70;;;16.60;99.90;;;;;;5094354;28;20035;-78
2022/07/07 01:16:36;;;;;;;17.67;7.35;;;16.60;99.90;;;;;;5094164;28;20489;-78
2022/07/07 01:19:01;;;;;;;13.77;8.18;;;16.60;99.90;;;;;;5112059;28;20032;-78
2022/07/07 01:21:31;;;;;;;18.17;7.72;;;16.50;99.90;;;;;;5093507;28;20047;-78
2022/07/07 01:23:56;;;;;;;17.13;8.40;;;16.60;99.90;;;;;;5094081;28;20035;-78
2022/07/07 01:26:22;;;;;;;13.07;7.40;;;16.50;99.90;;;;;;5093866;28;20032;-78
2022/07/07 01:28:47;;;;;;;17.08;8.95;;;16.60;99.90;;;;;;5094055;28;20039;-78
2022/07/07 01:31:13;;;;;;;13.75;8.00;;;16.60;99.90;;;;;;5093838;28;20035;-78
2022/07/07 01:33:39;;;;;;;15.07;7.70;;;16.50;99.90;;;;;;5093630;28;20482;-78
2022/07/07 01:36:05;;;;;;;8.15;4.65;;;16.50;99.90;;;;;;5094391;28;20068;-77
2022/07/07 01:38:30;;;;;;;8.18;4.40;;;16.50;99.90;;;;;;5093927;28;20044;-78
2022/07/07 01:40:56;;;;;;;4.43;3.28;;;16.50;99.90;;;;;;5093763;28;20508;-78
2022/07/07 01:43:22;;;;;;;6.60;3.42;;;16.50;99.90;;;;;;5093831;28;20047;-78
2022/07/07 01:45:47;;;;;;;6.60;3.33;;;16.40;99.90;;;;;;5093982;28;20444;-78
2022/07/07 01:48:13;;;;;;;7.55;3.55;;;16.40;99.90;;;;;;5094697;28;20035;-78
2022/07/07 01:50:39;;;;;;;6.60;2.75;;;16.30;99.90;;;;;;5094007;28;20398;-78
2022/07/07 01:53:04;;;;;;;5.22;2.47;;;16.20;99.90;;;;;;5093452;28;20135;-78
2022/07/07 01:55:30;;;;;;;5.60;3.05;;;16.30;99.90;;;;;;5093906;28;20043;-78
2022/07/07 01:57:55;;;;;;;5.95;2.60;;;16.20;99.90;;;;;;5094132;28;20043;-78
2022/07/07 02:00:21;;;;;;;6.45;2.92;;;16.20;99.90;;;;;;5076517;28;20039;-78
2022/07/07 02:02:47;;;;;;;4.80;2.42;;;16.20;99.90;;;;;;5093177;28;20047;-78
2022/07/07 02:05:12;;;;;;;4.53;2.80;;;16.20;99.90;;;;;;5093248;28;20043;-78
2022/07/07 02:07:38;;;;;;;7.40;2.67;;;16.10;99.90;;;;;;5093897;28;20031;-78
2022/07/07 02:10:05;;;;;;;5.05;2.95;;;16.20;99.90;;;;;;5093264;28;20044;-78
2022/07/07 02:12:30;;;;;;;8.07;2.95;;;16.10;99.90;;;;;;5093177;28;20043;-77
2022/07/07 02:14:57;;;;;;;4.95;2.40;;;16.10;99.90;;;;;;5076795;28;20134;-78
2022/07/07 02:17:23;;;;;;;4.72;2.20;;;16.10;99.90;;;;;;5093142;28;20048;-78
2022/07/07 02:19:48;;;;;;;4.15;2.42;;;16.10;99.90;;;;;;5076679;28;20054;-77
2022/07/07 02:22:14;;;;;;;2.88;2.00;;;16.10;99.90;;;;;;5093697;28;20054;-79
2022/07/07 02:24:39;;;;;;;3.22;2.20;;;16.10;99.90;;;;;;5094354;28;20050;-79
2022/07/07 02:27:05;;;;;;;4.82;2.50;;;16.10;99.90;;;;;;5093873;28;20486;-78
2022/07/07 02:29:31;;;;;;;3.03;2.40;;;16.10;99.90;;;;;;5093598;28;20036;-79
2022/07/07 02:31:56;;;;;;;3.85;1.98;;;16.10;99.90;;;;;;5093367;28;20040;-77
2022/07/07 02:34:22;;;;;;;3.42;2.17;;;16.10;99.90;;;;;;5094922;28;20090;-78
2022/07/07 02:36:48;;;;;;;5.80;2.47;;;16.10;99.90;;;;;;5093468;28;20051;-78
2022/07/07 02:39:14;;;;;;;4.38;2.20;;;16.00;99.90;;;;;;5111434;28;20035;-78
2022/07/07 02:41:39;;;;;;;4.60;2.10;;;16.00;99.90;;;;;;5093881;28;20040;-77
2022/07/07 02:44:05;;;;;;;4.57;2.15;;;16.00;99.90;;;;;;5093239;28;20061;-78
2022/07/07 02:46:30;;;;;;;3.17;2.35;;;16.00;99.90;;;;;;5093002;28;20043;-79
2022/07/07 02:48:56;;;;;;;3.95;2.33;;;16.00;99.90;;;;;;5093063;28;20131;-77
2022/07/07 02:51:22;;;;;;;5.68;2.35;;;16.00;99.90;;;;;;5092695;28;20067;-78
2022/07/07 02:53:47;;;;;;;6.22;2.88;;;16.00;99.90;;;;;;5093326;28;20031;-78
2022/07/07 02:56:13;;;;;;;3.00;2.33;;;16.10;99.90;;;;;;5092897;28;20043;-76
2022/07/07 02:58:38;;;;;;;5.68;3.20;;;16.00;99.90;;;;;;5111252;28;20071;-77
2022/07/07 03:01:04;;;;;;;4.85;2.67;;;16.00;99.90;;;;;;5092409;28;20047;-77
2022/07/07 03:03:30;;;;;;;3.67;2.78;;;16.00;99.90;;;;;;5093739;28;20039;-77
2022/07/07 03:05:55;;;;;;;6.05;2.47;;;16.00;99.90;;;;;;5096538;28;20059;-77
2022/07/07 03:08:22;;;;;;;5.10;2.67;;;16.10;99.90;;;;;;5114637;28;20051;-77
2022/07/07 03:10:48;;;;;;;4.78;2.33;;;16.10;99.90;;;;;;5096331;28;20084;-77
2022/07/07 03:13:13;;;;;;;7.85;3.67;;;16.00;99.90;;;;;;5096537;28;20517;-78
2022/07/07 03:15:39;;;;;;;5.50;2.80;;;16.10;99.90;;;;;;5097515;28;20494;-78
2022/07/07 03:18:05;;;;;;;7.38;2.25;;;16.00;99.90;;;;;;5115546;28;20043;-77
2022/07/07 03:20:30;;;;;;;6.90;2.15;;;16.10;99.90;;;;;;5114344;28;20078;-77
2022/07/07 03:22:56;;;;;;;5.95;2.50;;;16.10;99.90;;;;;;5097364;28;20039;-77
2022/07/07 03:25:22;;;;;;;4.90;1.85;;;16.10;99.90;;;;;;5096423;28;20112;-77
2022/07/07 03:27:47;;;;;;;5.32;1.83;;;16.10;99.90;;;;;;5096390;28;20067;-77
2022/07/07 03:30:13;;;;;;;7.32;2.72;;;16.00;99.90;;;;;;5096041;28;20077;-77
2022/07/07 03:32:39;;;;;;;7.22;2.13;;;16.00;99.90;;;;;;5098381;28;20035;-77
2022/07/07 03:35:07;;;;;;;7.15;2.10;;;16.10;99.90;;;;;;5098521;28;20143;-77
2022/07/07 03:37:33;;;;;;;7.63;2.50;;;16.00;99.90;;;;;;5100029;28;20100;-78
2022/07/07 03:39:59;;;;;;;7.78;2.78;;;16.00;99.90;;;;;;5098931;28;20068;-78
2022/07/07 03:42:25;;;;;;;8.35;2.08;;;16.00;99.90;;;;;;5099669;28;20386;-78
2022/07/07 03:44:50;;;;;;;8.07;1.85;;;16.00;99.90;;;;;;5098664;28;20097;-78
2022/07/07 03:47:16;;;;;;;10.65;2.15;;;16.00;99.90;;;;;;5102253;28;20092;-78
2022/07/07 03:49:42;;;;;;;7.75;1.98;;;16.00;99.90;;;;;;5103152;28;20522;-78
2022/07/07 03:52:07;;;;;;;7.82;2.30;;;16.00;99.90;;;;;;5102371;28;20502;-78
2022/07/07 03:54:33;;;;;;;9.23;2.20;;;16.00;99.90;;;;;;5085770;28;20071;-78
2022/07/07 03:56:59;;;;;;;9.23;1.98;;;16.00;99.90;;;;;;5101992;28;20554;-76
2022/07/07 03:59:24;;;;;;;5.80;1.70;;;16.00;99.90;;;;;;5095557;28;20031;-77
2022/07/07 04:01:50;;;;;;;7.47;2.00;;;16.00;99.90;;;;;;5097059;28;20047;-78
2022/07/07 04:04:16;;;;;;;6.97;1.40;;;16.00;99.90;;;;;;5095914;28;20073;-77
2022/07/07 04:06:44;;;;;;;7.68;1.88;;;16.00;99.90;;;;;;5096128;28;20159;-78
2022/07/07 04:09:10;;;;;;;8.27;1.50;;;16.00;99.90;;;;;;5096381;28;20501;-78
2022/07/07 04:11:36;;;;;;;7.53;1.90;;;15.90;99.90;;;;;;5096220;28;20039;-77
2022/07/07 04:14:03;;;;;;;5.30;1.50;;;16.00;99.90;;;;;;5096119;28;20069;-78
2022/07/07 04:16:29;;;;;;;7.15;1.38;;;15.90;99.90;;;;;;5096319;28;20044;-77
2022/07/07 04:18:56;;;;;;;6.40;1.40;;;16.00;99.90;;;;;;5095329;28;20119;-77
2022/07/07 04:21:21;;;;;;;9.43;1.65;;;15.90;99.90;;;;;;5095039;28;20046;-77
2022/07/07 04:23:47;;;;;;;6.78;1.55;;;15.90;99.90;;;;;;5095951;28;20119;-77
2022/07/07 04:26:13;;;;;;;8.95;1.80;;;15.90;99.90;;;;;;5124078;28;20683;-80
2022/07/07 04:28:38;;;;;;;11.20;1.55;;;15.90;99.90;;;;;;5108159;28;20047;-82
2022/07/07 04:31:04;;;;;;;6.80;1.17;;;15.90;99.90;;;;;;5103896;28;20036;-80
2022/07/07 04:33:29;;;;;;;6.88;1.33;;;15.80;99.90;;;;;;5103456;28;20039;-80
2022/07/07 04:35:55;;;;;;;7.65;1.55;;;15.80;99.90;;;;;;5105152;28;20058;-80
2022/07/07 04:38:21;;;;;;;3.50;0.93;;;15.80;99.90;;;;;;5108597;28;20059;-82
2022/07/07 04:40:46;;;;;;;3.42;0.63;;;15.80;99.90;;;;;;5104008;28;20106;-81
2022/07/07 04:43:12;;;;;;;2.75;0.60;;;15.80;99.90;;;;;;5106258;28;20043;-84
2022/07/07 04:45:38;;;;;;;6.88;1.42;;;15.80;99.90;;;;;;5092018;28;20040;-81
2022/07/07 04:48:04;;;;;;;10.02;1.70;;;15.80;99.90;;;;;;5091318;28;20635;-80
2022/07/07 04:50:30;;;;;;;7.70;1.10;;;15.70;99.90;;;;;;5090190;28;20039;-82
2022/07/07 04:52:55;;;;;;;5.50;2.05;;;15.70;99.90;;;;;;5125507;28;20486;-79
2022/07/07 04:55:21;;;;;;;4.50;1.33;;;15.70;99.90;;;;;;5107395;28;20040;-79
2022/07/07 04:57:47;;;;;;;6.22;0.93;;;15.70;99.90;;;;;;5116405;28;20027;-79
2022/07/07 05:00:13;;;;;;;3.50;0.88;;;15.70;99.90;;;;;;5114102;28;20126;-80
2022/07/07 05:02:38;;;;;;;9.60;4.07;;;15.70;99.90;;;;;;5126378;28;20039;-80
2022/07/07 05:05:06;;;;;;;6.03;1.15;;;15.70;99.90;;;;;;5117324;28;20047;-81
2022/07/07 05:07:32;;;;;;;2.97;1.73;;;15.60;99.90;;;;;;5118773;28;20071;-80
2022/07/07 05:09:57;;;;;;;6.95;1.40;;;15.60;99.90;;;;;;5116711;28;20071;-80
2022/07/07 05:12:23;;;;;;;3.17;1.20;;;15.50;99.90;;;;;;5119396;28;20051;-82
2022/07/07 05:14:49;;;;;;;6.75;1.05;;;15.60;99.90;;;;;;5084165;28;20039;-80
2022/07/07 05:17:14;;;;;;;2.92;0.80;;;15.60;99.90;;;;;;5082802;28;20047;-80
2022/07/07 05:19:40;;;;;;;2.85;0.82;;;15.60;99.90;;;;;;5117733;28;20067;-81
2022/07/07 05:22:07;;;;;;;3.65;0.73;;;15.70;99.90;;;;;;5084218;28;20076;-81
2022/07/07 05:24:33;;;;;;;4.05;1.27;;;15.70;99.90;;;;;;5117964;28;20402;-82
2022/07/07 05:26:59;;;;;;;2.80;0.82;;;15.80;99.90;;;;;;5117733;28;20031;-80
2022/07/07 05:29:25;;;;;;;5.25;0.60;;;15.80;99.90;;;;;;5117550;28;20694;-82
2022/07/07 05:31:50;;;;;;;4.68;0.70;;;15.80;99.90;;;;;;5119558;28;20126;-81
2022/07/07 05:34:16;;;;;;;2.72;0.63;;;15.90;99.90;;;;;;5100530;28;20073;-83
2022/07/07 05:36:41;;;;;;;3.30;0.80;;;16.10;99.90;;;;;;5099189;28;20039;-82
2022/07/07 05:39:07;;;;;;;4.90;1.38;;;16.70;99.90;;;;;;5118465;28;20037;-82
2022/07/07 05:41:32;;;;;;;2.72;0.68;;;17.50;99.90;;;;;;5117532;28;20035;-81
2022/07/07 05:43:58;;;;;;;4.82;0.90;;;18.20;99.90;;;;;;5099037;28;20031;-81
2022/07/07 05:46:24;;;;;;;6.07;0.85;;;18.80;99.90;;;;;;5116237;28;20455;-82
2022/07/07 05:48:50;;;;;;;2.92;0.70;;;19.30;99.90;;;;;;5118148;28;20067;-82
2022/07/07 05:51:16;;;;;;;3.28;0.70;;;19.70;99.90;;;;;;5118159;28;20039;-82
2022/07/07 05:53:41;;;;;;;3.60;0.80;;;19.90;99.90;;;;;;5118927;28;20036;-80
2022/07/07 05:56:07;;;;;;;7.00;1.55;;;19.90;99.90;;;;;;5099743;28;20044;-81
2022/07/07 05:58:33;;;;;;;8.50;1.60;;;19.80;99.90;;;;;;5083990;28;20051;-82
2022/07/07 06:00:58;;;;;;;4.88;1.08;;;19.40;99.90;;;;;;5082903;28;20036;-81
2022/07/07 06:03:24;;;;;;;5.55;1.10;;;19.00;99.90;;;;;;5119751;28;20032;-81
2022/07/07 06:05:50;;;;;;;5.53;0.95;;;18.60;99.90;;;;;;5100882;28;20039;-81
2022/07/07 06:08:17;;;;;;;7.22;1.17;;;18.30;99.90;;;;;;5097937;28;20035;-82
2022/07/07 06:10:43;;;;;;;3.58;0.90;;;18.30;99.90;;;;;;5114192;28;20032;-81
2022/07/07 06:13:09;;;;;;;6.25;1.30;;;18.80;99.90;;;;;;5096533;28;20040;-81
2022/07/07 06:15:35;;;;;;;6.80;1.23;;;19.40;99.90;;;;;;5079669;28;20554;-81
2022/07/07 06:18:04;;;;;;;4.97;1.08;;;20.00;99.90;;;;;;5113545;28;20039;-82
2022/07/07 06:20:30;;;;;;;6.32;1.20;;;20.40;99.90;;;;;;5114142;28;20074;-81
2022/07/07 06:22:56;;;;;;;4.25;1.23;;;20.80;99.90;;;;;;5078843;28;20043;-81
2022/07/07 06:25:22;;;;;;;7.60;0.98;;;21.10;99.90;;;;;;5078074;28;20046;-83
2022/07/07 06:27:48;;;;;;;5.65;1.23;;;21.40;99.90;;;;;;5079010;28;20458;-82
2022/07/07 06:30:14;;;;;;;5.45;0.82;;;21.70;99.90;;;;;;5078493;28;20032;-82
2022/07/07 06:32:39;;;;;;;5.93;1.23;;;21.70;99.90;;;;;;5095169;28;20046;-82
2022/07/07 06:35:06;;;;;;;7.55;1.70;;;21.60;99.90;;;;;;5078391;28;20051;-82
2022/07/07 06:37:32;;;;;;;7.32;1.15;;;21.60;99.90;;;;;;5095803;28;20051;-82
2022/07/07 06:39:58;;;;;;;4.05;1.30;;;21.10;99.90;;;;;;5081902;28;20040;-81
2022/07/07 06:42:23;;;;;;;4.90;0.90;;;20.60;99.90;;;;;;5098787;28;20039;-81
2022/07/07 06:44:49;;;;;;;6.10;0.95;;;20.20;99.90;;;;;;5098743;28;20505;-81
2022/07/07 06:47:15;;;;;;;5.68;1.00;;;20.00;99.90;;;;;;5080953;28;20096;-81
2022/07/07 06:49:40;;;;;;;5.40;1.00;;;19.80;99.90;;;;;;5098282;28;20054;-82
2022/07/07 06:52:06;;;;;;;5.97;0.93;;;19.80;99.90;;;;;;5098045;28;20040;-82
2022/07/07 06:54:32;;;;;;;9.00;1.25;;;20.20;99.90;;;;;;5097663;28;20047;-82
2022/07/07 06:56:58;;;;;;;7.85;1.48;;;20.70;99.90;;;;;;5115974;28;20517;-82
2022/07/07 06:59:24;;;;;;;4.40;0.90;;;21.30;99.90;;;;;;5116075;28;20031;-81
2022/07/07 07:01:50;;;;;;;6.25;1.13;;;21.70;99.90;;;;;;5098100;28;20035;-78
2022/07/07 07:04:15;;;;;;;5.78;0.95;;;21.70;99.90;;;;;;5098062;28;20044;-78
2022/07/07 07:06:42;;;;;;;2.85;1.10;;;21.40;99.90;;;;;;5098420;28;20040;-80
2022/07/07 07:09:08;;;;;;;3.78;0.65;;;20.90;99.90;;;;;;5098217;28;20035;-79
2022/07/07 07:11:33;;;;;;;2.55;0.50;;;20.20;99.90;;;;;;5116970;28;20071;-78
2022/07/07 07:14:01;;;;;;;1.55;0.40;;;19.70;99.90;;;;;;5097659;28;20478;-78
2022/07/07 07:16:27;;;;;;;4.45;0.60;;;19.40;99.90;;;;;;5081758;28;20071;-79
2022/07/07 07:18:52;;;;;;;5.55;0.90;;;19.30;99.90;;;;;;5100990;28;20120;-77
2022/07/07 07:21:18;;;;;;;6.70;0.90;;;19.70;99.90;;;;;;5099345;28;20036;-79
2022/07/07 07:23:44;;;;;;;3.45;1.08;;;20.40;99.90;;;;;;5083871;28;20054;-78
2022/07/07 07:26:09;;;;;;;3.92;0.65;;;20.80;99.90;;;;;;5118466;28;20040;-78
2022/07/07 07:28:35;;;;;;;3.55;0.50;;;21.30;99.90;;;;;;5099366;28;20092;-77
2022/07/07 07:31:01;;;;;;;3.67;1.00;;;21.70;99.90;;;;;;5098309;28;20423;-78
2022/07/07 07:33:28;;;;;;;5.40;0.80;;;21.80;99.90;;;;;;5082925;28;20051;-79
2022/07/07 07:35:54;;;;;;;3.83;0.60;;;22.00;99.90;;;;;;5098270;28;20044;-79
2022/07/07 07:38:20;;;;;;;2.15;0.50;;;22.10;99.90;;;;;;5085540;27;20046;-79
2022/07/07 07:40:45;;;;;;;6.65;1.17;;;21.90;99.90;;;;;;5083233;28;20118;-79
2022/07/07 07:43:12;;;;;;;2.20;0.45;;;21.60;99.90;;;;;;5098844;28;20081;-78
2022/07/07 07:45:38;;;;;;;2.45;0.60;;;21.20;99.90;;;;;;5079777;28;20039;-79
2022/07/07 07:48:04;;;;;;;3.30;0.60;;;20.90;99.90;;;;;;5077916;28;20032;-78
2022/07/07 07:50:31;;;;;;;6.18;0.80;;;20.30;99.90;;;;;;5093777;28;20050;-79
2022/07/07 07:52:57;;;;;;;1.92;0.60;;;19.90;99.90;;;;;;5094429;28;20050;-79
2022/07/07 07:55:23;;;;;;;2.85;0.50;;;19.50;99.90;;;;;;5078091;28;20575;-79
2022/07/07 07:57:50;;;;;;;5.30;0.60;;;19.20;99.90;;;;;;5078585;28;20169;-79
2022/07/07 08:00:19;;;;;;;4.35;0.80;;;18.90;99.90;;;;;;5078531;28;20047;-78
2022/07/07 08:02:45;;;;;;;3.83;0.60;;;18.60;99.90;;;;;;5096342;28;20043;-79
2022/07/07 08:05:11;;;;;;;6.75;1.05;;;18.30;99.90;;;;;;5079478;28;20123;-78
2022/07/07 08:07:38;;;;;;;3.00;0.70;;;18.00;99.90;;;;;;5095463;28;20131;-78
2022/07/07 08:10:05;;;;;;;2.53;0.47;;;17.70;99.90;;;;;;5095307;28;20047;-78
2022/07/07 08:12:31;;;;;;;2.25;0.60;;;17.50;99.90;;;;;;5095098;28;20046;-78
2022/07/07 08:14:56;;;;;;;1.60;0.50;;;17.40;99.90;;;;;;5095389;28;20043;-78
2022/07/07 08:17:22;;;;;;;2.92;0.63;;;17.60;99.90;;;;;;5095481;28;20047;-78
2022/07/07 08:19:49;;;;;;;6.53;1.08;;;17.80;99.90;;;;;;5095009;28;20054;-78
2022/07/07 08:22:14;;;;;;;1.67;0.40;;;18.10;99.90;;;;;;5095162;28;20039;-78
2022/07/07 08:24:40;;;;;;;2.00;0.60;;;18.60;99.90;;;;;;5113448;28;20109;-78
2022/07/07 08:27:05;;;;;;;2.20;0.80;;;19.10;99.90;;;;;;5112959;28;20379;-78
2022/07/07 08:29:31;;;;;;;4.85;1.02;;;19.50;99.90;;;;;;5094800;28;20059;-78
2022/07/07 08:31:57;;;;;;;1.58;0.50;;;19.90;99.90;;;;;;5094840;28;20119;-78
2022/07/07 08:34:23;;;;;;;2.00;0.60;;;20.30;99.90;;;;;;5095024;28;20114;-78
2022/07/07 08:36:48;;;;;;;3.85;0.80;;;20.60;99.90;;;;;;5094901;28;20040;-78
2022/07/07 08:39:14;;;;;;;3.03;0.82;;;20.80;99.90;;;;;;5113153;28;20044;-78
2022/07/07 08:41:41;;;;;;;3.92;1.15;;;20.80;99.90;;;;;;5095048;28;20036;-78
2022/07/07 08:44:07;;;;;;;4.30;0.70;;;20.90;99.90;;;;;;5094641;28;20051;-78
2022/07/07 08:46:32;;;;;;;2.85;0.80;;;21.10;99.90;;;;;;5094600;28;20035;-79
2022/07/07 08:48:58;;;;;;;5.00;0.70;;;21.20;99.90;;;;;;5078082;28;20502;-79
2022/07/07 08:51:25;;;;;;;2.67;0.50;;;21.10;99.90;;;;;;5077734;28;20036;-78
2022/07/07 08:53:51;;;;;;;3.70;0.95;;;20.80;99.90;;;;;;5094886;28;20170;-78
2022/07/07 08:56:18;;;;;;;2.80;0.50;;;20.40;99.90;;;;;;5113071;28;20413;-78
2022/07/07 08:58:45;;;;;;;5.78;0.90;;;20.10;99.90;;;;;;5094107;28;20148;-78
2022/07/07 09:01:11;;;;;;;2.60;0.55;;;19.90;99.90;;;;;;5092942;28;20043;-78
2022/07/07 09:03:37;;;;;;;2.47;0.50;;;19.70;99.90;;;;;;5094080;28;20050;-78
2022/07/07 09:06:04;;;;;;;0.93;0.50;;;19.70;99.90;;;;;;5094133;28;20039;-79
2022/07/07 09:08:31;;;;;;;2.17;0.50;;;19.70;99.90;;;;;;5094288;28;20498;-78
2022/07/07 09:10:57;;;;;;;3.90;0.70;;;19.80;99.90;;;;;;5093860;28;20050;-78
2022/07/07 09:13:31;;;;;;;2.15;0.60;;;20.10;99.90;;;;;;5096737;28;20046;-77
2022/07/07 09:16:04;;;;;;;1.75;0.90;;;20.30;99.90;;;;;;5116071;28;20082;-78
2022/07/07 09:18:32;;;;;;;5.13;0.90;;;20.30;99.90;;;;;;5116781;28;20483;-78
2022/07/07 09:20:58;;;;;;;7.00;0.98;;;20.30;99.90;;;;;;5105572;28;20505;-79
2022/07/07 09:23:24;;;;;;;6.55;1.02;;;20.20;99.90;;;;;;5094358;28;20051;-79
2022/07/07 09:25:50;;;;;;;5.30;0.70;;;20.00;99.90;;;;;;5093751;28;20054;-79
2022/07/07 09:28:16;;;;;;;5.05;0.98;;;19.80;99.90;;;;;;5094389;28;20043;-79
2022/07/07 09:30:43;;;;;;;3.75;1.00;;;19.50;99.90;;;;;;5093470;28;20135;-79
2022/07/07 09:33:20;;;;;;;5.03;0.93;;;19.30;99.90;;;;;;5093947;28;20379;-79
2022/07/07 09:38:32;;;;;;;2.92;0.85;;;18.80;99.90;;;;;;5093519;28;20058;-78
2022/07/07 09:41:10;;;;;;;9.80;1.23;;;18.60;99.90;;;;;;5093190;28;20058;-78
2022/07/07 09:43:51;;;;;;;4.70;1.00;;;18.50;99.90;;;;;;5093528;28;20044;-78
2022/07/07 09:46:20;;;;;;;6.47;1.02;;;18.50;99.90;;;;;;5093139;28;20082;-78
2022/07/07 09:48:50;;;;;;;4.57;1.10;;;18.60;99.90;;;;;;5076747;28;20108;-79
2022/07/07 09:51:30;;;;;;;2.25;0.80;;;18.80;99.90;;;;;;5093101;28;20260;-79
2022/07/07 09:54:00;;;;;;;3.70;1.17;;;19.40;99.90;;;;;;5093396;28;20040;-79
2022/07/07 09:56:29;;;;;;;2.45;0.90;;;19.80;99.90;;;;;;5093401;28;20513;-78
2022/07/07 09:58:55;;;;;;;4.70;1.50;;;19.90;99.90;;;;;;5076529;28;20046;-78
2022/07/07 10:01:25;;;;;;;5.10;1.50;;;19.60;99.90;;;;;;5093445;28;20036;-78
2022/07/07 10:03:56;;;;;;;3.85;0.77;;;19.50;99.90;;;;;;5111595;28;20071;-79
2022/07/07 10:06:24;;;;;;;4.20;1.07;;;19.30;99.90;;;;;;5093258;28;20048;-78
2022/07/07 10:08:55;;;;;;;5.03;1.00;;;19.30;99.90;;;;;;5111642;28;20344;-78
2022/07/07 10:11:22;;;;;;;4.40;1.00;;;19.30;99.90;;;;;;5093167;28;20039;-78
2022/07/07 10:13:49;;;;;;;6.18;1.20;;;19.30;99.90;;;;;;5096820;28;20048;-78
2022/07/07 10:16:15;;;;;;;3.55;0.95;;;19.30;99.90;;;;;;5115841;28;20054;-79
2022/07/07 10:18:42;;;;;;;6.20;1.00;;;19.50;99.90;;;;;;5098943;28;20050;-79
2022/07/07 10:21:08;;;;;;;6.05;0.93;;;19.70;99.90;;;;;;5097975;28;20043;-79
2022/07/07 10:23:34;;;;;;;2.20;1.02;;;19.60;99.90;;;;;;5098058;28;20047;-79
2022/07/07 10:26:04;;;;;;;4.82;1.00;;;19.40;99.90;;;;;;5096854;28;20044;-79
2022/07/07 10:28:53;;;;;;;5.72;1.38;;;19.10;99.90;;;;;;5096763;28;20039;-80
2022/07/07 10:31:28;;;;;;;2.30;0.88;;;19.00;99.90;;;;;;5096544;28;20043;-78
2022/07/07 10:34:11;;;;;;;1.75;0.60;;;19.00;99.90;;;;;;5115246;28;20398;-79
2022/07/07 10:36:49;;;;;;;2.80;0.88;;;19.00;99.90;;;;;;5080242;28;20082;-78
2022/07/07 10:39:16;;;;;;;1.73;0.77;;;19.10;99.90;;;;;;5096773;28;20142;-78
2022/07/07 10:42:01;;;;;;;5.70;1.38;;;19.30;99.90;;;;;;5096555;28;20043;-79
2022/07/07 10:44:27;;;;;;;4.00;0.93;;;19.40;99.90;;;;;;5096540;28;20104;-78
2022/07/07 10:47:12;;;;;;;5.38;0.98;;;19.50;99.90;;;;;;5096757;28;20043;-78
2022/07/07 10:49:52;;;;;;;4.60;1.38;;;19.50;99.90;;;;;;5096474;28;20035;-79
2022/07/07 10:52:48;;;;;;;3.05;0.68;;;19.30;99.90;;;;;;5097998;28;20104;-79
2022/07/07 10:55:13;;;;;;;3.15;0.85;;;19.00;99.90;;;;;;5066670;28;20059;-77
2022/07/07 10:57:44;;;;;;;2.92;0.90;;;18.60;99.90;;;;;;5096612;28;20343;-78
2022/07/07 11:00:27;;;;;;;2.70;1.30;;;18.50;99.90;;;;;;5096504;28;20436;-79
2022/07/07 11:03:09;;;;;;;6.32;1.00;;;18.50;99.90;;;;;;5079600;28;20552;-78
2022/07/07 11:05:35;;;;;;;4.95;1.17;;;18.60;99.90;;;;;;5079668;28;20449;-79
2022/07/07 11:08:03;;;;;;;4.30;0.80;;;18.60;99.90;;;;;;5094981;28;20575;-78
2022/07/07 11:10:42;;;;;;;4.50;1.27;;;18.70;99.90;;;;;;5094405;28;20059;-79
2022/07/07 11:13:34;;;;;;;4.85;1.10;;;18.90;99.90;;;;;;5094679;28;20122;-78
2022/07/07 11:16:10;;;;;;;5.63;0.80;;;18.90;99.90;;;;;;5091526;28;20047;-75
2022/07/07 11:18:36;;;;;;;5.20;1.48;;;18.70;99.90;;;;;;5087668;28;20035;-78
2022/07/07 11:21:04;;;;;;;3.30;1.10;;;18.40;99.90;;;;;;5091527;28;20043;-78
2022/07/07 11:23:54;;;;;;;3.45;1.27;;;18.20;99.90;;;;;;5095732;28;20070;-78
2022/07/07 11:26:52;;;;;;;6.18;1.13;;;18.00;99.90;;;;;;5095272;28;20058;-78
2022/07/07 11:29:17;;;;;;;5.35;1.20;;;18.00;99.90;;;;;;5095507;28;20071;-78
2022/07/07 11:31:43;;;;;;;5.88;1.40;;;18.00;99.90;;;;;;5093901;28;20070;-78
2022/07/07 11:34:12;;;;;;;10.20;1.60;;;18.20;99.90;;;;;;5093431;28;20046;-78
2022/07/07 11:36:38;;;;;;;10.15;2.05;;;18.30;99.90;;;;;;5095580;28;20055;-78
2022/07/07 11:39:06;;;;;;;6.43;1.45;;;18.30;99.90;;;;;;5093123;28;20035;-79
2022/07/07 11:41:45;;;;;;;18.83;2.17;;;18.30;99.90;;;;;;5095104;28;20051;-77
2022/07/07 11:44:21;;;;;;;11.85;1.30;;;18.20;99.90;;;;;;5078448;28;20056;-78
2022/07/07 11:46:48;;;;;;;9.73;1.50;;;18.10;99.90;;;;;;5099603;28;20132;-77
2022/07/07 11:49:18;;;;;;;9.90;1.80;;;18.20;99.90;;;;;;5108599;28;20043;-78
2022/07/07 11:51:45;;;;;;;14.10;2.28;;;18.20;99.90;;;;;;5094319;28;20031;-78
2022/07/07 11:54:11;;;;;;;9.88;1.45;;;18.20;99.90;;;;;;5093955;28;20509;-79
2022/07/07 11:56:37;;;;;;;14.40;2.50;;;18.10;99.90;;;;;;5093261;28;20051;-81
2022/07/07 11:59:03;;;;;;;11.43;2.08;;;18.00;99.90;;;;;;5080979;28;20050;-81
2022/07/07 12:01:34;;;;;;;13.88;1.92;;;17.90;99.90;;;;;;5079496;28;20096;-80
2022/07/07 12:04:13;;;;;;;8.10;1.67;;;18.00;99.90;;;;;;5079566;28;20036;-81
2022/07/07 12:06:39;;;;;;;6.57;1.63;;;18.10;99.90;;;;;;5090442;28;20046;-82
2022/07/07 12:09:05;;;;;;;12.65;2.17;;;18.20;99.90;;;;;;5080710;28;20115;-80
2022/07/07 12:11:31;;;;;;;12.05;2.25;;;18.50;99.90;;;;;;5079699;28;20054;-80
2022/07/07 12:13:57;;;;;;;7.25;1.58;;;18.80;99.90;;;;;;5079663;28;20039;-81
2022/07/07 12:16:23;;;;;;;8.13;1.88;;;19.00;99.90;;;;;;5080113;28;20072;-82
2022/07/07 12:18:49;;;;;;;13.43;1.75;;;19.10;99.90;;;;;;5097427;28;20116;-81
2022/07/07 12:21:21;;;;;;;12.98;2.25;;;19.10;99.90;;;;;;5080648;28;20044;-82
2022/07/07 12:23:52;;;;;;;10.77;1.88;;;19.10;99.90;;;;;;5078886;28;20039;-80
2022/07/07 12:26:26;;;;;;;12.98;2.65;;;19.10;99.90;;;;;;5095113;28;20052;-80
2022/07/07 12:28:57;;;;;;;7.40;1.70;;;19.10;99.90;;;;;;5094271;28;20115;-81
2022/07/07 12:31:24;;;;;;;7.40;2.15;;;19.10;99.90;;;;;;5094613;28;20031;-81
2022/07/07 12:33:49;;;;;;;9.38;1.70;;;19.10;99.90;;;;;;5097383;28;20043;-80
2022/07/07 12:36:17;;;;;;;5.90;1.40;;;19.20;99.90;;;;;;5104047;28;20054;-80
2022/07/07 12:38:44;;;;;;;6.68;1.73;;;19.30;99.90;;;;;;5101956;28;20043;-81
2022/07/07 12:41:29;;;;;;;7.32;1.65;;;19.40;99.90;;;;;;5101241;28;20103;-81
2022/07/07 12:43:57;;;;;;;5.85;1.55;;;19.30;99.90;;;;;;5100707;28;20511;-81
2022/07/07 12:46:33;;;;;;;6.10;1.50;;;19.10;99.90;;;;;;5101448;28;20122;-81
2022/07/07 12:49:00;;;;;;;8.07;1.73;;;19.00;99.90;;;;;;5096293;28;20119;-81